sensor_id;sensor_type;location;lat;lon;timestamp;temperature;humidity
41116;DHT22;26861;51.824;4.682;2023-03-14T00:02:26;18.00;56.60
41116;DHT22;26861;51.824;4.682;2023-03-14T00:04:56;18.00;56.30
41116;DHT22;26861;51.824;4.682;2023-03-14T00:07:22;18.00;56.30
41116;DHT22;26861;51.824;4.682;2023-03-14T00:09:50;18.00;56.30
41116;DHT22;26861;51.824;4.682;2023-03-14T00:12:17;18.00;56.40
41116;DHT22;26861;51.824;4.682;2023-03-14T00:14:43;18.00;56.30
41116;DHT22;26861;51.824;4.682;2023-03-14T00:17:09;18.00;56.40
41116;DHT22;26861;51.824;4.682;2023-03-14T00:19:34;18.00;56.30
41116;DHT22;26861;51.824;4.682;2023-03-14T00:22:00;18.00;56.30
41116;DHT22;26861;51.824;4.682;2023-03-14T00:24:26;18.00;56.40
41116;DHT22;26861;51.824;4.682;2023-03-14T00:26:52;18.00;56.30
41116;DHT22;26861;51.824;4.682;2023-03-14T00:29:18;18.00;56.30
41116;DHT22;26861;51.824;4.682;2023-03-14T00:31:45;18.00;56.30
41116;DHT22;26861;51.824;4.682;2023-03-14T00:34:11;18.00;56.40
41116;DHT22;26861;51.824;4.682;2023-03-14T00:36:37;18.00;56.40
41116;DHT22;26861;51.824;4.682;2023-03-14T00:39:03;18.00;56.30
41116;DHT22;26861;51.824;4.682;2023-03-14T00:41:29;18.00;56.30
41116;DHT22;26861;51.824;4.682;2023-03-14T00:43:55;18.00;56.30
41116;DHT22;26861;51.824;4.682;2023-03-14T00:46:21;18.00;56.30
41116;DHT22;26861;51.824;4.682;2023-03-14T00:48:47;18.00;56.30
41116;DHT22;26861;51.824;4.682;2023-03-14T00:51:14;18.00;56.40
41116;DHT22;26861;51.824;4.682;2023-03-14T00:53:41;18.00;56.40
41116;DHT22;26861;51.824;4.682;2023-03-14T00:56:09;18.00;56.30
41116;DHT22;26861;51.824;4.682;2023-03-14T00:58:35;18.00;56.40
41116;DHT22;26861;51.824;4.682;2023-03-14T01:01:14;18.10;64.70
41116;DHT22;26861;51.824;4.682;2023-03-14T01:03:39;18.00;56.40
41116;DHT22;26861;51.824;4.682;2023-03-14T01:06:14;18.00;56.60
41116;DHT22;26861;51.824;4.682;2023-03-14T01:08:40;18.00;56.50
41116;DHT22;26861;51.824;4.682;2023-03-14T01:11:15;18.00;56.50
41116;DHT22;26861;51.824;4.682;2023-03-14T01:13:42;18.00;56.60
41116;DHT22;26861;51.824;4.682;2023-03-14T01:16:10;18.00;56.60
41116;DHT22;26861;51.824;4.682;2023-03-14T01:18:36;18.00;56.50
41116;DHT22;26861;51.824;4.682;2023-03-14T01:21:19;18.00;56.40
41116;DHT22;26861;51.824;4.682;2023-03-14T01:23:47;18.00;56.50
41116;DHT22;26861;51.824;4.682;2023-03-14T01:26:15;18.00;56.50
41116;DHT22;26861;51.824;4.682;2023-03-14T01:28:42;18.00;56.50
41116;DHT22;26861;51.824;4.682;2023-03-14T01:31:09;18.00;56.60
41116;DHT22;26861;51.824;4.682;2023-03-14T01:33:35;18.00;56.60
41116;DHT22;26861;51.824;4.682;2023-03-14T01:36:01;18.00;56.50
41116;DHT22;26861;51.824;4.682;2023-03-14T01:38:30;18.00;56.60
41116;DHT22;26861;51.824;4.682;2023-03-14T01:40:57;18.00;56.60
41116;DHT22;26861;51.824;4.682;2023-03-14T01:43:24;18.00;56.60
41116;DHT22;26861;51.824;4.682;2023-03-14T01:48:37;17.90;56.40
41116;DHT22;26861;51.824;4.682;2023-03-14T01:51:08;17.90;56.60
41116;DHT22;26861;51.824;4.682;2023-03-14T01:53:37;18.00;56.70
41116;DHT22;26861;51.824;4.682;2023-03-14T01:56:04;17.90;56.70
41116;DHT22;26861;51.824;4.682;2023-03-14T01:58:32;17.90;56.60
41116;DHT22;26861;51.824;4.682;2023-03-14T02:01:01;17.90;64.90
41116;DHT22;26861;51.824;4.682;2023-03-14T02:03:29;17.90;56.70
41116;DHT22;26861;51.824;4.682;2023-03-14T02:06:00;17.90;56.70
41116;DHT22;26861;51.824;4.682;2023-03-14T02:08:27;17.90;56.70
41116;DHT22;26861;51.824;4.682;2023-03-14T02:10:53;17.90;56.60
41116;DHT22;26861;51.824;4.682;2023-03-14T02:13:20;17.90;57.30
41116;DHT22;26861;51.824;4.682;2023-03-14T02:15:46;17.90;56.60
41116;DHT22;26861;51.824;4.682;2023-03-14T02:18:13;17.90;56.60
41116;DHT22;26861;51.824;4.682;2023-03-14T02:20:51;17.90;56.70
41116;DHT22;26861;51.824;4.682;2023-03-14T02:26:10;17.90;56.60
41116;DHT22;26861;51.824;4.682;2023-03-14T02:28:37;17.90;56.60
41116;DHT22;26861;51.824;4.682;2023-03-14T02:31:03;17.80;56.70
41116;DHT22;26861;51.824;4.682;2023-03-14T02:33:29;17.80;56.70
41116;DHT22;26861;51.824;4.682;2023-03-14T02:35:59;17.80;56.60
41116;DHT22;26861;51.824;4.682;2023-03-14T02:41:18;17.80;56.60
41116;DHT22;26861;51.824;4.682;2023-03-14T02:43:44;17.90;56.70
41116;DHT22;26861;51.824;4.682;2023-03-14T02:46:14;17.80;56.70
41116;DHT22;26861;51.824;4.682;2023-03-14T02:48:55;17.90;56.70
41116;DHT22;26861;51.824;4.682;2023-03-14T02:51:22;17.80;56.50
41116;DHT22;26861;51.824;4.682;2023-03-14T02:53:49;17.80;56.60
41116;DHT22;26861;51.824;4.682;2023-03-14T02:56:15;17.80;56.70
41116;DHT22;26861;51.824;4.682;2023-03-14T02:58:41;17.80;56.70
41116;DHT22;26861;51.824;4.682;2023-03-14T03:01:07;17.70;64.90
41116;DHT22;26861;51.824;4.682;2023-03-14T03:03:33;17.80;56.70
41116;DHT22;26861;51.824;4.682;2023-03-14T03:05:59;17.80;56.70
41116;DHT22;26861;51.824;4.682;2023-03-14T03:08:26;17.80;56.70
41116;DHT22;26861;51.824;4.682;2023-03-14T03:10:53;17.80;56.70
41116;DHT22;26861;51.824;4.682;2023-03-14T03:13:20;17.70;56.70
41116;DHT22;26861;51.824;4.682;2023-03-14T03:15:46;17.80;56.60
41116;DHT22;26861;51.824;4.682;2023-03-14T03:18:12;17.80;56.70
41116;DHT22;26861;51.824;4.682;2023-03-14T03:20:38;17.70;56.60
41116;DHT22;26861;51.824;4.682;2023-03-14T03:23:04;17.80;56.70
41116;DHT22;26861;51.824;4.682;2023-03-14T03:25:31;17.70;56.60
41116;DHT22;26861;51.824;4.682;2023-03-14T03:27:57;17.70;56.60
41116;DHT22;26861;51.824;4.682;2023-03-14T03:30:23;17.70;56.60
41116;DHT22;26861;51.824;4.682;2023-03-14T03:32:49;17.70;56.60
41116;DHT22;26861;51.824;4.682;2023-03-14T03:35:15;17.70;56.70
41116;DHT22;26861;51.824;4.682;2023-03-14T03:37:41;17.70;56.60
41116;DHT22;26861;51.824;4.682;2023-03-14T03:40:08;17.70;56.60
41116;DHT22;26861;51.824;4.682;2023-03-14T03:42:35;17.70;56.60
41116;DHT22;26861;51.824;4.682;2023-03-14T03:45:02;17.70;56.60
41116;DHT22;26861;51.824;4.682;2023-03-14T03:47:30;17.70;56.60
41116;DHT22;26861;51.824;4.682;2023-03-14T03:49:56;17.70;56.60
41116;DHT22;26861;51.824;4.682;2023-03-14T03:52:22;17.60;56.60
41116;DHT22;26861;51.824;4.682;2023-03-14T03:54:48;17.70;56.70
41116;DHT22;26861;51.824;4.682;2023-03-14T03:57:14;17.70;56.70
41116;DHT22;26861;51.824;4.682;2023-03-14T03:59:40;17.60;56.60
41116;DHT22;26861;51.824;4.682;2023-03-14T04:02:07;17.60;56.60
41116;DHT22;26861;51.824;4.682;2023-03-14T04:04:33;17.70;56.70
41116;DHT22;26861;51.824;4.682;2023-03-14T04:06:58;17.70;56.70
41116;DHT22;26861;51.824;4.682;2023-03-14T04:09:24;17.60;56.60
41116;DHT22;26861;51.824;4.682;2023-03-14T04:11:50;17.70;56.70
41116;DHT22;26861;51.824;4.682;2023-03-14T04:14:15;17.60;56.70
41116;DHT22;26861;51.824;4.682;2023-03-14T04:16:41;17.60;56.70
41116;DHT22;26861;51.824;4.682;2023-03-14T04:19:06;17.60;56.70
41116;DHT22;26861;51.824;4.682;2023-03-14T04:21:32;17.60;56.70
41116;DHT22;26861;51.824;4.682;2023-03-14T04:23:58;17.60;56.80
41116;DHT22;26861;51.824;4.682;2023-03-14T04:26:23;17.60;56.80
41116;DHT22;26861;51.824;4.682;2023-03-14T04:28:49;17.60;56.80
41116;DHT22;26861;51.824;4.682;2023-03-14T04:31:17;17.60;56.80
41116;DHT22;26861;51.824;4.682;2023-03-14T04:33:44;17.60;56.80
41116;DHT22;26861;51.824;4.682;2023-03-14T04:36:09;17.60;57.40
41116;DHT22;26861;51.824;4.682;2023-03-14T04:38:35;17.60;56.80
41116;DHT22;26861;51.824;4.682;2023-03-14T04:41:01;17.60;56.80
41116;DHT22;26861;51.824;4.682;2023-03-14T04:43:27;17.60;56.80
41116;DHT22;26861;51.824;4.682;2023-03-14T04:45:54;17.60;56.90
41116;DHT22;26861;51.824;4.682;2023-03-14T04:48:20;17.60;56.90
41116;DHT22;26861;51.824;4.682;2023-03-14T04:50:47;17.60;56.90
41116;DHT22;26861;51.824;4.682;2023-03-14T04:53:14;17.50;56.90
41116;DHT22;26861;51.824;4.682;2023-03-14T04:55:40;17.60;56.90
41116;DHT22;26861;51.824;4.682;2023-03-14T04:58:06;17.50;56.90
41116;DHT22;26861;51.824;4.682;2023-03-14T05:00:32;17.50;56.90
41116;DHT22;26861;51.824;4.682;2023-03-14T05:02:59;17.50;57.00
41116;DHT22;26861;51.824;4.682;2023-03-14T05:05:25;17.50;56.90
41116;DHT22;26861;51.824;4.682;2023-03-14T05:07:51;17.50;57.00
41116;DHT22;26861;51.824;4.682;2023-03-14T05:10:17;17.50;56.90
41116;DHT22;26861;51.824;4.682;2023-03-14T05:12:43;17.50;57.00
41116;DHT22;26861;51.824;4.682;2023-03-14T05:15:09;17.50;57.00
41116;DHT22;26861;51.824;4.682;2023-03-14T05:17:35;17.50;57.00
41116;DHT22;26861;51.824;4.682;2023-03-14T05:20:02;17.50;57.10
41116;DHT22;26861;51.824;4.682;2023-03-14T05:22:33;17.50;57.10
41116;DHT22;26861;51.824;4.682;2023-03-14T05:24:59;17.50;57.80
41116;DHT22;26861;51.824;4.682;2023-03-14T05:27:25;17.50;57.20
41116;DHT22;26861;51.824;4.682;2023-03-14T05:29:51;17.50;57.40
41116;DHT22;26861;51.824;4.682;2023-03-14T05:32:17;17.50;57.30
41116;DHT22;26861;51.824;4.682;2023-03-14T05:34:43;17.50;57.40
41116;DHT22;26861;51.824;4.682;2023-03-14T05:37:09;17.50;57.50
41116;DHT22;26861;51.824;4.682;2023-03-14T05:39:35;17.40;57.60
41116;DHT22;26861;51.824;4.682;2023-03-14T05:42:01;17.50;57.70
41116;DHT22;26861;51.824;4.682;2023-03-14T05:44:27;17.50;57.70
41116;DHT22;26861;51.824;4.682;2023-03-14T05:46:53;17.50;57.90
41116;DHT22;26861;51.824;4.682;2023-03-14T05:49:19;17.50;58.00
41116;DHT22;26861;51.824;4.682;2023-03-14T05:51:46;17.50;58.10
41116;DHT22;26861;51.824;4.682;2023-03-14T05:54:12;17.50;58.20
41116;DHT22;26861;51.824;4.682;2023-03-14T05:56:38;17.50;58.20
41116;DHT22;26861;51.824;4.682;2023-03-14T05:59:04;17.50;58.20
41116;DHT22;26861;51.824;4.682;2023-03-14T06:01:30;17.50;58.30
41116;DHT22;26861;51.824;4.682;2023-03-14T06:03:56;17.50;58.40
41116;DHT22;26861;51.824;4.682;2023-03-14T06:06:21;17.50;58.20
41116;DHT22;26861;51.824;4.682;2023-03-14T06:08:47;17.50;58.40
41116;DHT22;26861;51.824;4.682;2023-03-14T06:11:13;17.50;58.50
41116;DHT22;26861;51.824;4.682;2023-03-14T06:13:38;17.40;58.60
41116;DHT22;26861;51.824;4.682;2023-03-14T06:16:04;17.40;58.70
41116;DHT22;26861;51.824;4.682;2023-03-14T06:18:30;17.40;58.70
41116;DHT22;26861;51.824;4.682;2023-03-14T06:20:56;17.50;58.70
41116;DHT22;26861;51.824;4.682;2023-03-14T06:23:22;17.50;59.30
41116;DHT22;26861;51.824;4.682;2023-03-14T06:25:48;17.50;58.60
41116;DHT22;26861;51.824;4.682;2023-03-14T06:28:13;17.50;58.60
41116;DHT22;26861;51.824;4.682;2023-03-14T06:30:39;17.50;58.70
41116;DHT22;26861;51.824;4.682;2023-03-14T06:33:05;17.50;58.50
41116;DHT22;26861;51.824;4.682;2023-03-14T06:35:31;17.50;58.60
41116;DHT22;26861;51.824;4.682;2023-03-14T06:37:57;17.50;58.60
41116;DHT22;26861;51.824;4.682;2023-03-14T06:40:23;17.50;58.60
41116;DHT22;26861;51.824;4.682;2023-03-14T06:42:49;17.50;58.60
41116;DHT22;26861;51.824;4.682;2023-03-14T06:45:16;17.50;58.60
41116;DHT22;26861;51.824;4.682;2023-03-14T06:47:42;17.50;58.60
41116;DHT22;26861;51.824;4.682;2023-03-14T06:50:09;17.50;58.50
41116;DHT22;26861;51.824;4.682;2023-03-14T06:52:36;17.50;58.60
41116;DHT22;26861;51.824;4.682;2023-03-14T06:55:02;17.50;58.60
41116;DHT22;26861;51.824;4.682;2023-03-14T06:57:29;17.50;58.50
41116;DHT22;26861;51.824;4.682;2023-03-14T06:59:55;17.50;58.50
41116;DHT22;26861;51.824;4.682;2023-03-14T07:02:22;17.50;58.50
41116;DHT22;26861;51.824;4.682;2023-03-14T07:04:48;17.50;58.40
41116;DHT22;26861;51.824;4.682;2023-03-14T07:07:14;17.50;58.40
41116;DHT22;26861;51.824;4.682;2023-03-14T07:09:40;17.50;58.30
41116;DHT22;26861;51.824;4.682;2023-03-14T07:12:06;17.40;58.30
41116;DHT22;26861;51.824;4.682;2023-03-14T07:14:32;17.50;58.30
41116;DHT22;26861;51.824;4.682;2023-03-14T07:16:58;17.50;58.30
41116;DHT22;26861;51.824;4.682;2023-03-14T07:19:24;17.40;58.20
41116;DHT22;26861;51.824;4.682;2023-03-14T07:21:50;17.40;58.20
41116;DHT22;26861;51.824;4.682;2023-03-14T07:24:16;17.50;58.20
41116;DHT22;26861;51.824;4.682;2023-03-14T07:26:42;17.50;58.20
41116;DHT22;26861;51.824;4.682;2023-03-14T07:29:08;17.40;58.10
41116;DHT22;26861;51.824;4.682;2023-03-14T07:31:34;17.40;58.10
41116;DHT22;26861;51.824;4.682;2023-03-14T07:34:00;17.40;58.10
41116;DHT22;26861;51.824;4.682;2023-03-14T07:36:26;17.40;58.10
41116;DHT22;26861;51.824;4.682;2023-03-14T07:38:52;17.40;58.10
41116;DHT22;26861;51.824;4.682;2023-03-14T07:41:18;17.40;58.10
41116;DHT22;26861;51.824;4.682;2023-03-14T07:43:46;17.40;58.70
41116;DHT22;26861;51.824;4.682;2023-03-14T07:46:12;17.40;58.80
41116;DHT22;26861;51.824;4.682;2023-03-14T07:48:38;17.40;58.70
41116;DHT22;26861;51.824;4.682;2023-03-14T07:51:05;17.40;58.20
41116;DHT22;26861;51.824;4.682;2023-03-14T07:53:31;17.40;58.20
41116;DHT22;26861;51.824;4.682;2023-03-14T07:55:57;17.40;58.10
41116;DHT22;26861;51.824;4.682;2023-03-14T07:58:23;17.40;58.10
41116;DHT22;26861;51.824;4.682;2023-03-14T08:00:50;17.40;58.10
41116;DHT22;26861;51.824;4.682;2023-03-14T08:03:17;17.40;58.10
41116;DHT22;26861;51.824;4.682;2023-03-14T08:05:43;17.40;58.10
41116;DHT22;26861;51.824;4.682;2023-03-14T08:08:10;17.40;58.10
41116;DHT22;26861;51.824;4.682;2023-03-14T08:10:36;17.40;58.10
41116;DHT22;26861;51.824;4.682;2023-03-14T08:13:02;17.40;58.70
41116;DHT22;26861;51.824;4.682;2023-03-14T08:15:30;17.40;58.10
41116;DHT22;26861;51.824;4.682;2023-03-14T08:17:56;17.30;58.00
41116;DHT22;26861;51.824;4.682;2023-03-14T08:20:25;17.40;58.00
41116;DHT22;26861;51.824;4.682;2023-03-14T08:22:51;17.30;57.90
41116;DHT22;26861;51.824;4.682;2023-03-14T08:25:17;17.30;57.90
41116;DHT22;26861;51.824;4.682;2023-03-14T08:27:43;17.30;57.80
41116;DHT22;26861;51.824;4.682;2023-03-14T08:30:11;17.30;57.80
41116;DHT22;26861;51.824;4.682;2023-03-14T08:32:37;17.30;57.80
41116;DHT22;26861;51.824;4.682;2023-03-14T08:35:04;17.30;57.80
41116;DHT22;26861;51.824;4.682;2023-03-14T08:37:34;17.30;57.80
41116;DHT22;26861;51.824;4.682;2023-03-14T08:40:00;17.30;57.70
41116;DHT22;26861;51.824;4.682;2023-03-14T08:42:27;17.30;57.60
41116;DHT22;26861;51.824;4.682;2023-03-14T08:44:52;17.30;57.60
41116;DHT22;26861;51.824;4.682;2023-03-14T08:47:18;17.30;57.60
41116;DHT22;26861;51.824;4.682;2023-03-14T08:49:44;17.30;57.50
41116;DHT22;26861;51.824;4.682;2023-03-14T08:52:10;17.30;57.50
41116;DHT22;26861;51.824;4.682;2023-03-14T08:54:35;17.20;57.30
41116;DHT22;26861;51.824;4.682;2023-03-14T08:57:01;17.20;57.20
41116;DHT22;26861;51.824;4.682;2023-03-14T08:59:26;17.20;57.20
41116;DHT22;26861;51.824;4.682;2023-03-14T09:01:52;17.20;57.20
41116;DHT22;26861;51.824;4.682;2023-03-14T09:04:19;17.20;57.70
41116;DHT22;26861;51.824;4.682;2023-03-14T09:06:45;17.20;57.20
41116;DHT22;26861;51.824;4.682;2023-03-14T09:09:11;17.20;57.20
41116;DHT22;26861;51.824;4.682;2023-03-14T09:11:38;17.20;57.20
41116;DHT22;26861;51.824;4.682;2023-03-14T09:14:04;17.20;57.10
41116;DHT22;26861;51.824;4.682;2023-03-14T09:16:30;17.20;57.10
41116;DHT22;26861;51.824;4.682;2023-03-14T09:18:55;17.20;57.10
41116;DHT22;26861;51.824;4.682;2023-03-14T09:21:27;17.20;57.10
41116;DHT22;26861;51.824;4.682;2023-03-14T09:23:53;17.20;56.90
41116;DHT22;26861;51.824;4.682;2023-03-14T09:26:19;17.20;56.80
41116;DHT22;26861;51.824;4.682;2023-03-14T09:28:45;17.20;56.90
41116;DHT22;26861;51.824;4.682;2023-03-14T09:31:12;17.20;56.90
41116;DHT22;26861;51.824;4.682;2023-03-14T09:33:38;17.20;56.70
41116;DHT22;26861;51.824;4.682;2023-03-14T09:36:04;17.20;56.60
41116;DHT22;26861;51.824;4.682;2023-03-14T09:38:30;17.30;56.70
41116;DHT22;26861;51.824;4.682;2023-03-14T09:41:00;17.20;56.60
41116;DHT22;26861;51.824;4.682;2023-03-14T09:43:29;17.20;56.70
41116;DHT22;26861;51.824;4.682;2023-03-14T09:45:57;17.20;56.50
41116;DHT22;26861;51.824;4.682;2023-03-14T09:48:31;17.20;56.50
41116;DHT22;26861;51.824;4.682;2023-03-14T09:50:59;17.20;56.70
41116;DHT22;26861;51.824;4.682;2023-03-14T09:53:50;17.20;56.60
41116;DHT22;26861;51.824;4.682;2023-03-14T09:56:28;17.20;56.60
41116;DHT22;26861;51.824;4.682;2023-03-14T09:58:58;17.20;57.20
41116;DHT22;26861;51.824;4.682;2023-03-14T10:01:28;17.20;56.50
41116;DHT22;26861;51.824;4.682;2023-03-14T10:03:55;17.20;56.70
41116;DHT22;26861;51.824;4.682;2023-03-14T10:06:26;17.20;56.80
41116;DHT22;26861;51.824;4.682;2023-03-14T10:08:53;17.20;56.80
41116;DHT22;26861;51.824;4.682;2023-03-14T10:11:20;17.10;56.70
41116;DHT22;26861;51.824;4.682;2023-03-14T10:14:11;17.20;56.70
41116;DHT22;26861;51.824;4.682;2023-03-14T10:16:44;17.10;56.60
41116;DHT22;26861;51.824;4.682;2023-03-14T10:19:13;17.10;56.60
41116;DHT22;26861;51.824;4.682;2023-03-14T10:21:42;17.10;56.60
41116;DHT22;26861;51.824;4.682;2023-03-14T10:24:26;17.10;56.50
41116;DHT22;26861;51.824;4.682;2023-03-14T10:26:54;17.10;56.60
41116;DHT22;26861;51.824;4.682;2023-03-14T10:29:21;17.10;56.50
41116;DHT22;26861;51.824;4.682;2023-03-14T10:34:32;17.10;56.50
41116;DHT22;26861;51.824;4.682;2023-03-14T10:36:59;17.10;56.50
41116;DHT22;26861;51.824;4.682;2023-03-14T10:39:38;17.10;56.50
41116;DHT22;26861;51.824;4.682;2023-03-14T10:42:26;17.10;56.50
41116;DHT22;26861;51.824;4.682;2023-03-14T10:44:58;17.10;56.50
41116;DHT22;26861;51.824;4.682;2023-03-14T10:47:26;17.10;56.50
41116;DHT22;26861;51.824;4.682;2023-03-14T10:49:53;17.10;56.50
41116;DHT22;26861;51.824;4.682;2023-03-14T10:52:23;17.00;56.60
41116;DHT22;26861;51.824;4.682;2023-03-14T10:55:00;17.00;56.70
41116;DHT22;26861;51.824;4.682;2023-03-14T10:57:26;17.00;56.70
41116;DHT22;26861;51.824;4.682;2023-03-14T10:59:55;17.00;56.80
41116;DHT22;26861;51.824;4.682;2023-03-14T11:02:40;17.00;56.80
41116;DHT22;26861;51.824;4.682;2023-03-14T11:07:46;17.00;56.50
41116;DHT22;26861;51.824;4.682;2023-03-14T11:13:07;17.00;56.60
41116;DHT22;26861;51.824;4.682;2023-03-14T11:19:15;17.10;56.50
41116;DHT22;26861;51.824;4.682;2023-03-14T11:27:34;17.10;56.30
41116;DHT22;26861;51.824;4.682;2023-03-14T11:30:18;17.10;56.30
41116;DHT22;26861;51.824;4.682;2023-03-14T11:32:52;17.10;56.20
41116;DHT22;26861;51.824;4.682;2023-03-14T11:35:24;17.20;55.80
41116;DHT22;26861;51.824;4.682;2023-03-14T11:38:27;17.20;55.30
41116;DHT22;26861;51.824;4.682;2023-03-14T11:40:46;17.40;55.10
41116;DHT22;26861;51.824;4.682;2023-03-14T11:43:24;17.50;55.00
41116;DHT22;26861;51.824;4.682;2023-03-14T11:45:56;17.60;54.40
41116;DHT22;26861;51.824;4.682;2023-03-14T11:48:38;17.60;54.20
41116;DHT22;26861;51.824;4.682;2023-03-14T11:51:11;17.70;54.30
41116;DHT22;26861;51.824;4.682;2023-03-14T11:53:53;17.80;53.80
41116;DHT22;26861;51.824;4.682;2023-03-14T11:56:57;18.00;53.30
41116;DHT22;26861;51.824;4.682;2023-03-14T12:13:16;18.70;51.20
41116;DHT22;26861;51.824;4.682;2023-03-14T12:15:57;18.80;51.00
41116;DHT22;26861;51.824;4.682;2023-03-14T12:18:27;18.80;51.40
41116;DHT22;26861;51.824;4.682;2023-03-14T12:20:56;18.90;51.00
41116;DHT22;26861;51.824;4.682;2023-03-14T12:23:24;18.90;50.50
41116;DHT22;26861;51.824;4.682;2023-03-14T12:26:27;18.90;50.80
41116;DHT22;26861;51.824;4.682;2023-03-14T12:29:15;18.60;51.70
41116;DHT22;26861;51.824;4.682;2023-03-14T12:31:45;18.50;51.90
41116;DHT22;26861;51.824;4.682;2023-03-14T12:39:40;18.80;51.60
41116;DHT22;26861;51.824;4.682;2023-03-14T12:42:35;18.90;51.50
41116;DHT22;26861;51.824;4.682;2023-03-14T12:47:47;19.10;51.70
41116;DHT22;26861;51.824;4.682;2023-03-14T12:50:21;19.00;50.80
41116;DHT22;26861;51.824;4.682;2023-03-14T12:53:16;18.90;50.60
41116;DHT22;26861;51.824;4.682;2023-03-14T12:56:38;18.90;51.20
41116;DHT22;26861;51.824;4.682;2023-03-14T13:01:24;19.00;51.10
41116;DHT22;26861;51.824;4.682;2023-03-14T13:03:56;19.10;50.10
41116;DHT22;26861;51.824;4.682;2023-03-14T13:07:02;19.20;49.70
41116;DHT22;26861;51.824;4.682;2023-03-14T13:12:03;19.30;49.10
41116;DHT22;26861;51.824;4.682;2023-03-14T13:14:33;19.30;49.40
41116;DHT22;26861;51.824;4.682;2023-03-14T13:17:00;19.40;49.00
41116;DHT22;26861;51.824;4.682;2023-03-14T13:19:27;19.40;49.20
41116;DHT22;26861;51.824;4.682;2023-03-14T13:22:02;19.50;49.50
41116;DHT22;26861;51.824;4.682;2023-03-14T13:24:29;19.50;49.40
41116;DHT22;26861;51.824;4.682;2023-03-14T13:26:58;19.40;50.00
41116;DHT22;26861;51.824;4.682;2023-03-14T13:29:26;19.30;50.90
41116;DHT22;26861;51.824;4.682;2023-03-14T13:31:54;19.20;51.10
41116;DHT22;26861;51.824;4.682;2023-03-14T13:34:34;19.20;51.00
41116;DHT22;26861;51.824;4.682;2023-03-14T13:37:00;19.20;51.20
41116;DHT22;26861;51.824;4.682;2023-03-14T13:39:28;19.10;51.50
41116;DHT22;26861;51.824;4.682;2023-03-14T13:41:58;19.00;52.00
41116;DHT22;26861;51.824;4.682;2023-03-14T13:44:50;18.90;52.10
41116;DHT22;26861;51.824;4.682;2023-03-14T13:47:18;18.80;53.10
41116;DHT22;26861;51.824;4.682;2023-03-14T13:49:46;18.70;52.30
41116;DHT22;26861;51.824;4.682;2023-03-14T13:52:30;18.70;52.40
41116;DHT22;26861;51.824;4.682;2023-03-14T13:54:57;18.70;52.50
41116;DHT22;26861;51.824;4.682;2023-03-14T13:57:23;18.70;51.00
41116;DHT22;26861;51.824;4.682;2023-03-14T14:00:22;18.70;51.00
41116;DHT22;26861;51.824;4.682;2023-03-14T14:02:56;18.70;51.90
41116;DHT22;26861;51.824;4.682;2023-03-14T14:05:25;18.60;52.80
41116;DHT22;26861;51.824;4.682;2023-03-14T14:07:51;18.60;51.90
41116;DHT22;26861;51.824;4.682;2023-03-14T14:10:17;18.50;51.90
41116;DHT22;26861;51.824;4.682;2023-03-14T14:12:57;18.50;51.40
41116;DHT22;26861;51.824;4.682;2023-03-14T14:15:30;18.40;51.00
41116;DHT22;26861;51.824;4.682;2023-03-14T14:18:01;18.40;52.00
41116;DHT22;26861;51.824;4.682;2023-03-14T14:23:03;18.30;52.80
41116;DHT22;26861;51.824;4.682;2023-03-14T14:25:30;18.30;52.50
41116;DHT22;26861;51.824;4.682;2023-03-14T14:27:56;18.20;52.00
41116;DHT22;26861;51.824;4.682;2023-03-14T14:30:32;18.20;51.40
41116;DHT22;26861;51.824;4.682;2023-03-14T14:33:19;18.20;51.90
41116;DHT22;26861;51.824;4.682;2023-03-14T14:35:56;18.10;53.00
41116;DHT22;26861;51.824;4.682;2023-03-14T14:38:22;18.10;52.80
41116;DHT22;26861;51.824;4.682;2023-03-14T14:40:51;18.10;52.30
41116;DHT22;26861;51.824;4.682;2023-03-14T14:43:24;18.00;51.80
41116;DHT22;26861;51.824;4.682;2023-03-14T14:45:53;18.00;52.40
41116;DHT22;26861;51.824;4.682;2023-03-14T14:48:22;18.00;52.20
41116;DHT22;26861;51.824;4.682;2023-03-14T14:51:01;17.90;51.70
41116;DHT22;26861;51.824;4.682;2023-03-14T14:53:35;17.90;52.20
41116;DHT22;26861;51.824;4.682;2023-03-14T14:56:17;17.90;52.50
41116;DHT22;26861;51.824;4.682;2023-03-14T14:58:46;17.90;51.80
41116;DHT22;26861;51.824;4.682;2023-03-14T15:01:17;17.80;53.20
41116;DHT22;26861;51.824;4.682;2023-03-14T15:03:46;17.90;51.80
41116;DHT22;26861;51.824;4.682;2023-03-14T15:06:13;17.80;52.10
41116;DHT22;26861;51.824;4.682;2023-03-14T15:08:40;17.80;53.40
41116;DHT22;26861;51.824;4.682;2023-03-14T15:11:05;17.80;53.80
41116;DHT22;26861;51.824;4.682;2023-03-14T15:13:31;17.80;53.60
41116;DHT22;26861;51.824;4.682;2023-03-14T15:15:57;17.80;53.70
41116;DHT22;26861;51.824;4.682;2023-03-14T15:18:25;17.80;53.40
41116;DHT22;26861;51.824;4.682;2023-03-14T15:20:51;17.80;52.70
41116;DHT22;26861;51.824;4.682;2023-03-14T15:23:19;17.80;53.40
41116;DHT22;26861;51.824;4.682;2023-03-14T15:25:46;17.70;52.50
41116;DHT22;26861;51.824;4.682;2023-03-14T15:28:18;17.70;53.10
41116;DHT22;26861;51.824;4.682;2023-03-14T15:30:51;17.70;52.80
41116;DHT22;26861;51.824;4.682;2023-03-14T15:33:17;17.70;52.90
41116;DHT22;26861;51.824;4.682;2023-03-14T15:35:43;17.70;53.30
41116;DHT22;26861;51.824;4.682;2023-03-14T15:38:11;17.70;53.10
41116;DHT22;26861;51.824;4.682;2023-03-14T15:40:37;17.70;52.70
41116;DHT22;26861;51.824;4.682;2023-03-14T15:43:03;17.70;52.40
41116;DHT22;26861;51.824;4.682;2023-03-14T15:45:29;17.60;52.60
41116;DHT22;26861;51.824;4.682;2023-03-14T15:47:55;17.60;52.60
41116;DHT22;26861;51.824;4.682;2023-03-14T15:50:21;17.70;53.00
41116;DHT22;26861;51.824;4.682;2023-03-14T15:52:48;17.60;52.80
41116;DHT22;26861;51.824;4.682;2023-03-14T15:55:14;17.60;52.70
41116;DHT22;26861;51.824;4.682;2023-03-14T15:57:41;17.60;52.80
41116;DHT22;26861;51.824;4.682;2023-03-14T16:00:11;17.60;52.80
41116;DHT22;26861;51.824;4.682;2023-03-14T16:02:40;17.60;52.60
41116;DHT22;26861;51.824;4.682;2023-03-14T16:05:08;17.50;52.50
41116;DHT22;26861;51.824;4.682;2023-03-14T16:07:34;17.50;52.70
41116;DHT22;26861;51.824;4.682;2023-03-14T16:10:00;17.50;52.70
41116;DHT22;26861;51.824;4.682;2023-03-14T16:12:25;17.50;52.60
41116;DHT22;26861;51.824;4.682;2023-03-14T16:14:51;17.50;52.40
41116;DHT22;26861;51.824;4.682;2023-03-14T16:17:17;17.50;52.60
41116;DHT22;26861;51.824;4.682;2023-03-14T16:19:42;17.50;52.50
41116;DHT22;26861;51.824;4.682;2023-03-14T16:22:08;17.50;52.50
41116;DHT22;26861;51.824;4.682;2023-03-14T16:24:33;17.50;52.50
41116;DHT22;26861;51.824;4.682;2023-03-14T16:26:59;17.50;52.40
41116;DHT22;26861;51.824;4.682;2023-03-14T16:29:25;17.40;52.20
41116;DHT22;26861;51.824;4.682;2023-03-14T16:31:52;17.40;52.30
41116;DHT22;26861;51.824;4.682;2023-03-14T16:34:18;17.40;52.30
41116;DHT22;26861;51.824;4.682;2023-03-14T16:36:43;17.40;52.10